sensor_id;sensor_type;location;lat;lon;timestamp;P1;durP1;ratioP1;P2;durP2;ratioP2
10013;SDS011;45684;48.358;10.746;2023-04-01T00:01:02;1.70;;;0.97;;
10013;SDS011;45684;48.358;10.746;2023-04-01T00:03:32;0.90;;;0.70;;
10013;SDS011;45684;48.358;10.746;2023-04-01T00:06:03;2.83;;;0.97;;
10013;SDS011;45684;48.358;10.746;2023-04-01T00:08:31;2.27;;;0.70;;
10013;SDS011;45684;48.358;10.746;2023-04-01T00:10:59;0.97;;;0.70;;
10013;SDS011;45684;48.358;10.746;2023-04-01T00:13:27;0.83;;;0.70;;
10013;SDS011;45684;48.358;10.746;2023-04-01T00:15:55;1.97;;;1.07;;
10013;SDS011;45684;48.358;10.746;2023-04-01T00:18:25;2.10;;;0.80;;
10013;SDS011;45684;48.358;10.746;2023-04-01T00:20:53;0.97;;;0.60;;
10013;SDS011;45684;48.358;10.746;2023-04-01T00:23:23;1.67;;;0.70;;
10013;SDS011;45684;48.358;10.746;2023-04-01T00:25:50;2.10;;;0.80;;
10013;SDS011;45684;48.358;10.746;2023-04-01T00:28:19;1.87;;;0.73;;
10013;SDS011;45684;48.358;10.746;2023-04-01T00:30:47;1.50;;;0.93;;
10013;SDS011;45684;48.358;10.746;2023-04-01T00:33:15;2.20;;;1.10;;
10013;SDS011;45684;48.358;10.746;2023-04-01T00:35:43;2.83;;;1.03;;
10013;SDS011;45684;48.358;10.746;2023-04-01T00:38:11;1.30;;;0.83;;
10013;SDS011;45684;48.358;10.746;2023-04-01T00:40:43;2.20;;;0.80;;
10013;SDS011;45684;48.358;10.746;2023-04-01T00:43:12;2.53;;;0.90;;
10013;SDS011;45684;48.358;10.746;2023-04-01T00:45:44;2.73;;;0.83;;
10013;SDS011;45684;48.358;10.746;2023-04-01T00:48:14;0.87;;;0.70;;
10013;SDS011;45684;48.358;10.746;2023-04-01T00:50:46;2.07;;;0.80;;
10013;SDS011;45684;48.358;10.746;2023-04-01T00:53:18;1.03;;;0.60;;
10013;SDS011;45684;48.358;10.746;2023-04-01T00:55:50;0.73;;;0.60;;
10013;SDS011;45684;48.358;10.746;2023-04-01T00:58:24;11.30;;;10.23;;
10013;SDS011;45684;48.358;10.746;2023-04-01T01:00:56;7.40;;;4.50;;
10013;SDS011;45684;48.358;10.746;2023-04-01T01:03:26;3.27;;;2.47;;
10013;SDS011;45684;48.358;10.746;2023-04-01T01:06:03;7.93;;;7.13;;
10013;SDS011;45684;48.358;10.746;2023-04-01T01:09:01;3.57;;;3.00;;
10013;SDS011;45684;48.358;10.746;2023-04-01T01:11:39;6.80;;;5.37;;
10013;SDS011;45684;48.358;10.746;2023-04-01T01:14:12;3.10;;;2.40;;
10013;SDS011;45684;48.358;10.746;2023-04-01T01:16:51;1.47;;;0.93;;
10013;SDS011;45684;48.358;10.746;2023-04-01T01:19:32;2.43;;;0.93;;
10013;SDS011;45684;48.358;10.746;2023-04-01T01:22:20;1.37;;;0.70;;
10013;SDS011;45684;48.358;10.746;2023-04-01T01:27:49;3.17;;;0.80;;
10013;SDS011;45684;48.358;10.746;2023-04-01T01:30:28;1.53;;;0.80;;
10013;SDS011;45684;48.358;10.746;2023-04-01T01:33:08;1.43;;;0.90;;
10013;SDS011;45684;48.358;10.746;2023-04-01T01:35:47;1.97;;;0.97;;
10013;SDS011;45684;48.358;10.746;2023-04-01T01:38:19;2.60;;;0.73;;
10013;SDS011;45684;48.358;10.746;2023-04-01T01:41:02;1.53;;;0.90;;
10013;SDS011;45684;48.358;10.746;2023-04-01T01:43:33;1.40;;;0.97;;
10013;SDS011;45684;48.358;10.746;2023-04-01T01:46:06;0.80;;;0.80;;
10013;SDS011;45684;48.358;10.746;2023-04-01T01:48:37;0.97;;;0.60;;
10013;SDS011;45684;48.358;10.746;2023-04-01T01:51:09;0.93;;;0.67;;
10013;SDS011;45684;48.358;10.746;2023-04-01T01:53:37;2.83;;;0.60;;
10013;SDS011;45684;48.358;10.746;2023-04-01T01:56:05;0.67;;;0.43;;
10013;SDS011;45684;48.358;10.746;2023-04-01T01:58:38;0.80;;;0.60;;
10013;SDS011;45684;48.358;10.746;2023-04-01T02:01:13;1.23;;;0.50;;
10013;SDS011;45684;48.358;10.746;2023-04-01T02:03:44;1.13;;;0.80;;
10013;SDS011;45684;48.358;10.746;2023-04-01T02:06:15;2.13;;;0.70;;
10013;SDS011;45684;48.358;10.746;2023-04-01T02:08:47;0.73;;;0.50;;
10013;SDS011;45684;48.358;10.746;2023-04-01T02:11:19;1.70;;;1.00;;
10013;SDS011;45684;48.358;10.746;2023-04-01T02:13:54;1.93;;;0.60;;
10013;SDS011;45684;48.358;10.746;2023-04-01T02:16:26;0.90;;;0.60;;
10013;SDS011;45684;48.358;10.746;2023-04-01T02:18:59;0.40;;;0.40;;
10013;SDS011;45684;48.358;10.746;2023-04-01T02:21:30;0.90;;;0.50;;
10013;SDS011;45684;48.358;10.746;2023-04-01T02:24:00;0.70;;;0.57;;
10013;SDS011;45684;48.358;10.746;2023-04-01T02:26:32;1.63;;;0.60;;
10013;SDS011;45684;48.358;10.746;2023-04-01T02:29:01;0.50;;;0.50;;
10013;SDS011;45684;48.358;10.746;2023-04-01T02:31:32;0.60;;;0.60;;
10013;SDS011;45684;48.358;10.746;2023-04-01T02:34:01;1.13;;;0.50;;
10013;SDS011;45684;48.358;10.746;2023-04-01T02:36:31;0.50;;;0.50;;
10013;SDS011;45684;48.358;10.746;2023-04-01T02:38:59;0.73;;;0.67;;
10013;SDS011;45684;48.358;10.746;2023-04-01T02:41:29;0.60;;;0.60;;
10013;SDS011;45684;48.358;10.746;2023-04-01T02:43:57;1.53;;;0.77;;
10013;SDS011;45684;48.358;10.746;2023-04-01T02:46:25;0.43;;;0.40;;
10013;SDS011;45684;48.358;10.746;2023-04-01T02:48:53;0.83;;;0.60;;
10013;SDS011;45684;48.358;10.746;2023-04-01T02:51:21;2.13;;;0.67;;
10013;SDS011;45684;48.358;10.746;2023-04-01T02:53:50;0.73;;;0.60;;
10013;SDS011;45684;48.358;10.746;2023-04-01T02:56:18;0.80;;;0.60;;
10013;SDS011;45684;48.358;10.746;2023-04-01T02:58:47;1.30;;;0.77;;
10013;SDS011;45684;48.358;10.746;2023-04-01T03:01:15;2.93;;;0.60;;
10013;SDS011;45684;48.358;10.746;2023-04-01T03:03:43;7.33;;;0.83;;
10013;SDS011;45684;48.358;10.746;2023-04-01T03:06:12;1.87;;;1.20;;
10013;SDS011;45684;48.358;10.746;2023-04-01T03:08:41;0.80;;;0.80;;
10013;SDS011;45684;48.358;10.746;2023-04-01T03:11:11;1.23;;;0.60;;
10013;SDS011;45684;48.358;10.746;2023-04-01T03:13:39;1.80;;;1.70;;
10013;SDS011;45684;48.358;10.746;2023-04-01T03:16:07;1.20;;;0.50;;
10013;SDS011;45684;48.358;10.746;2023-04-01T03:18:35;0.77;;;0.77;;
10013;SDS011;45684;48.358;10.746;2023-04-01T03:23:50;0.80;;;0.80;;
10013;SDS011;45684;48.358;10.746;2023-04-01T03:26:19;1.17;;;1.17;;
10013;SDS011;45684;48.358;10.746;2023-04-01T03:28:47;21.77;;;15.43;;
10013;SDS011;45684;48.358;10.746;2023-04-01T03:31:15;11.30;;;7.83;;
10013;SDS011;45684;48.358;10.746;2023-04-01T03:33:49;38.33;;;26.00;;
10013;SDS011;45684;48.358;10.746;2023-04-01T03:36:17;19.53;;;15.23;;
10013;SDS011;45684;48.358;10.746;2023-04-01T03:38:46;30.73;;;20.17;;
10013;SDS011;45684;48.358;10.746;2023-04-01T03:41:21;5.40;;;3.77;;
10013;SDS011;45684;48.358;10.746;2023-04-01T03:43:49;12.57;;;7.87;;
10013;SDS011;45684;48.358;10.746;2023-04-01T03:46:17;5.77;;;4.17;;
10013;SDS011;45684;48.358;10.746;2023-04-01T03:48:45;4.10;;;3.50;;
10013;SDS011;45684;48.358;10.746;2023-04-01T03:51:14;2.57;;;2.17;;
10013;SDS011;45684;48.358;10.746;2023-04-01T03:53:42;7.67;;;4.60;;
10013;SDS011;45684;48.358;10.746;2023-04-01T03:56:10;1.17;;;1.07;;
10013;SDS011;45684;48.358;10.746;2023-04-01T03:58:39;2.17;;;1.10;;
10013;SDS011;45684;48.358;10.746;2023-04-01T04:01:15;1.57;;;1.30;;
10013;SDS011;45684;48.358;10.746;2023-04-01T04:03:46;7.50;;;4.53;;
10013;SDS011;45684;48.358;10.746;2023-04-01T04:06:16;6.43;;;4.63;;
10013;SDS011;45684;48.358;10.746;2023-04-01T04:08:46;3.77;;;2.47;;
10013;SDS011;45684;48.358;10.746;2023-04-01T04:11:14;5.10;;;3.80;;
10013;SDS011;45684;48.358;10.746;2023-04-01T04:13:43;1.67;;;1.57;;
10013;SDS011;45684;48.358;10.746;2023-04-01T04:16:11;1.50;;;1.40;;
10013;SDS011;45684;48.358;10.746;2023-04-01T04:18:44;1.20;;;0.90;;
10013;SDS011;45684;48.358;10.746;2023-04-01T04:21:12;2.10;;;1.40;;
10013;SDS011;45684;48.358;10.746;2023-04-01T04:23:42;2.73;;;2.10;;
10013;SDS011;45684;48.358;10.746;2023-04-01T04:26:13;1.87;;;1.10;;
10013;SDS011;45684;48.358;10.746;2023-04-01T04:28:48;1.40;;;1.30;;
10013;SDS011;45684;48.358;10.746;2023-04-01T04:31:18;8.60;;;6.20;;
10013;SDS011;45684;48.358;10.746;2023-04-01T04:33:47;2.80;;;1.60;;
10013;SDS011;45684;48.358;10.746;2023-04-01T04:36:15;1.90;;;1.23;;
10013;SDS011;45684;48.358;10.746;2023-04-01T04:38:43;2.27;;;1.60;;
10013;SDS011;45684;48.358;10.746;2023-04-01T04:41:12;1.73;;;1.07;;
10013;SDS011;45684;48.358;10.746;2023-04-01T04:43:49;1.50;;;1.10;;
10013;SDS011;45684;48.358;10.746;2023-04-01T04:46:19;1.33;;;0.60;;
10013;SDS011;45684;48.358;10.746;2023-04-01T04:48:51;1.03;;;0.90;;
10013;SDS011;45684;48.358;10.746;2023-04-01T04:51:20;1.80;;;1.13;;
10013;SDS011;45684;48.358;10.746;2023-04-01T04:53:50;1.40;;;1.03;;
10013;SDS011;45684;48.358;10.746;2023-04-01T04:56:22;1.43;;;0.87;;
10013;SDS011;45684;48.358;10.746;2023-04-01T04:59:07;1.23;;;0.97;;
10013;SDS011;45684;48.358;10.746;2023-04-01T05:01:47;1.63;;;0.80;;
10013;SDS011;45684;48.358;10.746;2023-04-01T05:04:15;1.00;;;0.83;;
10013;SDS011;45684;48.358;10.746;2023-04-01T05:06:43;1.07;;;0.90;;
10013;SDS011;45684;48.358;10.746;2023-04-01T05:09:12;1.10;;;0.67;;
10013;SDS011;45684;48.358;10.746;2023-04-01T05:11:40;0.70;;;0.70;;
10013;SDS011;45684;48.358;10.746;2023-04-01T05:14:13;1.37;;;0.80;;
10013;SDS011;45684;48.358;10.746;2023-04-01T05:16:46;1.33;;;0.63;;
10013;SDS011;45684;48.358;10.746;2023-04-01T05:19:15;1.23;;;0.97;;
10013;SDS011;45684;48.358;10.746;2023-04-01T05:21:43;2.40;;;1.20;;
10013;SDS011;45684;48.358;10.746;2023-04-01T05:24:11;1.23;;;0.90;;
10013;SDS011;45684;48.358;10.746;2023-04-01T05:26:39;2.73;;;0.93;;
10013;SDS011;45684;48.358;10.746;2023-04-01T05:29:07;1.80;;;0.70;;
10013;SDS011;45684;48.358;10.746;2023-04-01T05:31:36;1.27;;;0.90;;
10013;SDS011;45684;48.358;10.746;2023-04-01T05:34:05;2.30;;;1.00;;
10013;SDS011;45684;48.358;10.746;2023-04-01T05:36:32;0.87;;;0.80;;
10013;SDS011;45684;48.358;10.746;2023-04-01T05:39:02;1.30;;;0.73;;
10013;SDS011;45684;48.358;10.746;2023-04-01T05:41:30;1.77;;;0.70;;
10013;SDS011;45684;48.358;10.746;2023-04-01T05:43:58;2.47;;;0.77;;
10013;SDS011;45684;48.358;10.746;2023-04-01T05:46:56;1.43;;;0.70;;
10013;SDS011;45684;48.358;10.746;2023-04-01T05:49:25;3.17;;;0.70;;
10013;SDS011;45684;48.358;10.746;2023-04-01T05:51:54;0.77;;;0.70;;
10013;SDS011;45684;48.358;10.746;2023-04-01T05:54:22;1.40;;;0.83;;
10013;SDS011;45684;48.358;10.746;2023-04-01T05:56:50;1.23;;;0.80;;
10013;SDS011;45684;48.358;10.746;2023-04-01T05:59:19;3.60;;;1.00;;
10013;SDS011;45684;48.358;10.746;2023-04-01T06:01:47;0.93;;;0.90;;
10013;SDS011;45684;48.358;10.746;2023-04-01T06:04:17;1.77;;;0.83;;
10013;SDS011;45684;48.358;10.746;2023-04-01T06:06:45;1.43;;;0.70;;
10013;SDS011;45684;48.358;10.746;2023-04-01T06:09:14;0.53;;;0.53;;
10013;SDS011;45684;48.358;10.746;2023-04-01T06:11:54;1.83;;;0.90;;
10013;SDS011;45684;48.358;10.746;2023-04-01T06:14:48;0.93;;;0.80;;
10013;SDS011;45684;48.358;10.746;2023-04-01T06:17:26;0.97;;;0.83;;
10013;SDS011;45684;48.358;10.746;2023-04-01T06:20:08;2.80;;;0.93;;
10013;SDS011;45684;48.358;10.746;2023-04-01T06:22:47;2.03;;;1.10;;
10013;SDS011;45684;48.358;10.746;2023-04-01T06:25:28;2.77;;;1.40;;
10013;SDS011;45684;48.358;10.746;2023-04-01T06:28:10;1.70;;;0.93;;
10013;SDS011;45684;48.358;10.746;2023-04-01T06:30:52;1.00;;;0.70;;
10013;SDS011;45684;48.358;10.746;2023-04-01T06:33:37;1.20;;;0.73;;
10013;SDS011;45684;48.358;10.746;2023-04-01T06:36:17;1.20;;;0.77;;
10013;SDS011;45684;48.358;10.746;2023-04-01T06:38:57;2.77;;;0.93;;
10013;SDS011;45684;48.358;10.746;2023-04-01T06:41:51;1.70;;;1.00;;
10013;SDS011;45684;48.358;10.746;2023-04-01T06:44:47;1.30;;;0.90;;
10013;SDS011;45684;48.358;10.746;2023-04-01T06:47:55;1.50;;;0.90;;
10013;SDS011;45684;48.358;10.746;2023-04-01T06:50:52;4.10;;;1.20;;
10013;SDS011;45684;48.358;10.746;2023-04-01T06:53:48;1.30;;;0.70;;
10013;SDS011;45684;48.358;10.746;2023-04-01T06:56:54;1.77;;;0.50;;
10013;SDS011;45684;48.358;10.746;2023-04-01T06:59:28;3.30;;;0.90;;
10013;SDS011;45684;48.358;10.746;2023-04-01T07:02:01;2.40;;;1.00;;
10013;SDS011;45684;48.358;10.746;2023-04-01T07:04:34;0.80;;;0.63;;
10013;SDS011;45684;48.358;10.746;2023-04-01T07:07:05;0.90;;;0.60;;
10013;SDS011;45684;48.358;10.746;2023-04-01T07:09:53;1.63;;;0.90;;
10013;SDS011;45684;48.358;10.746;2023-04-01T07:12:33;0.77;;;0.57;;
10013;SDS011;45684;48.358;10.746;2023-04-01T07:15:33;2.23;;;0.93;;
10013;SDS011;45684;48.358;10.746;2023-04-01T07:18:09;2.10;;;0.70;;
10013;SDS011;45684;48.358;10.746;2023-04-01T07:20:42;0.93;;;0.60;;
10013;SDS011;45684;48.358;10.746;2023-04-01T07:23:13;1.80;;;0.73;;
10013;SDS011;45684;48.358;10.746;2023-04-01T07:26:06;1.13;;;0.57;;
10013;SDS011;45684;48.358;10.746;2023-04-01T07:29:01;1.23;;;0.40;;
10013;SDS011;45684;48.358;10.746;2023-04-01T07:31:43;1.23;;;0.50;;
10013;SDS011;45684;48.358;10.746;2023-04-01T07:34:23;1.07;;;0.50;;
10013;SDS011;45684;48.358;10.746;2023-04-01T07:36:54;1.17;;;0.63;;
10013;SDS011;45684;48.358;10.746;2023-04-01T07:39:30;0.50;;;0.50;;
10013;SDS011;45684;48.358;10.746;2023-04-01T07:42:28;1.50;;;0.67;;
10013;SDS011;45684;48.358;10.746;2023-04-01T07:45:06;2.03;;;0.80;;
10013;SDS011;45684;48.358;10.746;2023-04-01T07:47:46;1.10;;;0.70;;
10013;SDS011;45684;48.358;10.746;2023-04-01T07:50:35;2.17;;;1.13;;
10013;SDS011;45684;48.358;10.746;2023-04-01T07:53:11;0.80;;;0.70;;
10013;SDS011;45684;48.358;10.746;2023-04-01T07:55:50;1.80;;;0.60;;
10013;SDS011;45684;48.358;10.746;2023-04-01T07:58:31;0.70;;;0.50;;
10013;SDS011;45684;48.358;10.746;2023-04-01T08:01:10;0.50;;;0.50;;
10013;SDS011;45684;48.358;10.746;2023-04-01T08:04:01;0.70;;;0.63;;
10013;SDS011;45684;48.358;10.746;2023-04-01T08:06:43;0.80;;;0.70;;
10013;SDS011;45684;48.358;10.746;2023-04-01T08:09:18;0.70;;;0.40;;
10013;SDS011;45684;48.358;10.746;2023-04-01T08:12:27;0.60;;;0.57;;
10013;SDS011;45684;48.358;10.746;2023-04-01T08:15:41;0.33;;;0.30;;
10013;SDS011;45684;48.358;10.746;2023-04-01T08:18:31;0.87;;;0.40;;
10013;SDS011;45684;48.358;10.746;2023-04-01T08:21:10;0.70;;;0.50;;
10013;SDS011;45684;48.358;10.746;2023-04-01T08:23:43;2.03;;;0.57;;
10013;SDS011;45684;48.358;10.746;2023-04-01T08:26:16;0.70;;;0.60;;
10013;SDS011;45684;48.358;10.746;2023-04-01T08:28:54;1.37;;;0.53;;
10013;SDS011;45684;48.358;10.746;2023-04-01T08:31:34;1.57;;;0.50;;
10013;SDS011;45684;48.358;10.746;2023-04-01T08:34:08;0.53;;;0.37;;
10013;SDS011;45684;48.358;10.746;2023-04-01T08:36:45;0.53;;;0.40;;
10013;SDS011;45684;48.358;10.746;2023-04-01T08:39:28;1.93;;;0.57;;
10013;SDS011;45684;48.358;10.746;2023-04-01T08:48:29;0.80;;;0.47;;
10013;SDS011;45684;48.358;10.746;2023-04-01T08:51:20;0.50;;;0.50;;
10013;SDS011;45684;48.358;10.746;2023-04-01T08:54:08;0.37;;;0.37;;
10013;SDS011;45684;48.358;10.746;2023-04-01T08:56:53;0.37;;;0.30;;
10013;SDS011;45684;48.358;10.746;2023-04-01T08:59:41;1.60;;;0.60;;
10013;SDS011;45684;48.358;10.746;2023-04-01T09:08:58;0.40;;;0.40;;
10013;SDS011;45684;48.358;10.746;2023-04-01T09:11:58;0.50;;;0.30;;
10013;SDS011;45684;48.358;10.746;2023-04-01T09:14:53;0.53;;;0.20;;
10013;SDS011;45684;48.358;10.746;2023-04-01T09:20:50;0.50;;;0.50;;
10013;SDS011;45684;48.358;10.746;2023-04-01T09:26:49;1.33;;;0.30;;
10013;SDS011;45684;48.358;10.746;2023-04-01T09:29:37;0.63;;;0.40;;
10013;SDS011;45684;48.358;10.746;2023-04-01T09:35:22;0.20;;;0.20;;
10013;SDS011;45684;48.358;10.746;2023-04-01T09:37:59;0.23;;;0.23;;
10013;SDS011;45684;48.358;10.746;2023-04-01T09:40:43;0.60;;;0.40;;
10013;SDS011;45684;48.358;10.746;2023-04-01T09:43:41;0.20;;;0.20;;
10013;SDS011;45684;48.358;10.746;2023-04-01T09:46:24;0.73;;;0.30;;
10013;SDS011;45684;48.358;10.746;2023-04-01T09:49:13;0.30;;;0.10;;
10013;SDS011;45684;48.358;10.746;2023-04-01T09:52:01;0.37;;;0.30;;
10013;SDS011;45684;48.358;10.746;2023-04-01T09:54:48;0.23;;;0.23;;
10013;SDS011;45684;48.358;10.746;2023-04-01T10:01:20;0.20;;;0.20;;
10013;SDS011;45684;48.358;10.746;2023-04-01T10:04:26;0.40;;;0.30;;
10013;SDS011;45684;48.358;10.746;2023-04-01T10:07:27;0.93;;;0.40;;
10013;SDS011;45684;48.358;10.746;2023-04-01T10:10:20;0.30;;;0.30;;
10013;SDS011;45684;48.358;10.746;2023-04-01T10:22:17;0.37;;;0.37;;
10013;SDS011;45684;48.358;10.746;2023-04-01T10:25:18;0.53;;;0.40;;
10013;SDS011;45684;48.358;10.746;2023-04-01T10:31:24;0.30;;;0.30;;
10013;SDS011;45684;48.358;10.746;2023-04-01T10:34:28;0.83;;;0.30;;
10013;SDS011;45684;48.358;10.746;2023-04-01T10:37:23;0.30;;;0.30;;
10013;SDS011;45684;48.358;10.746;2023-04-01T10:49:44;1.40;;;1.30;;
10013;SDS011;45684;48.358;10.746;2023-04-01T10:52:46;4.17;;;1.47;;
10013;SDS011;45684;48.358;10.746;2023-04-01T11:06:33;0.37;;;0.37;;
10013;SDS011;45684;48.358;10.746;2023-04-01T11:12:35;1.87;;;1.03;;
10013;SDS011;45684;48.358;10.746;2023-04-01T11:15:34;2.33;;;1.90;;
10013;SDS011;45684;48.358;10.746;2023-04-01T11:18:32;1.10;;;0.93;;
10013;SDS011;45684;48.358;10.746;2023-04-01T11:24:42;1.37;;;1.37;;
10013;SDS011;45684;48.358;10.746;2023-04-01T11:27:38;0.70;;;0.70;;
10013;SDS011;45684;48.358;10.746;2023-04-01T11:30:20;1.27;;;1.20;;
10013;SDS011;45684;48.358;10.746;2023-04-01T11:32:58;0.93;;;0.87;;
10013;SDS011;45684;48.358;10.746;2023-04-01T11:35:44;1.03;;;1.03;;
10013;SDS011;45684;48.358;10.746;2023-04-01T11:38:28;0.90;;;0.90;;
10013;SDS011;45684;48.358;10.746;2023-04-01T11:41:35;1.63;;;1.53;;
10013;SDS011;45684;48.358;10.746;2023-04-01T11:44:28;0.87;;;0.87;;
10013;SDS011;45684;48.358;10.746;2023-04-01T11:47:30;0.83;;;0.83;;
10013;SDS011;45684;48.358;10.746;2023-04-01T11:50:17;1.70;;;1.60;;
10013;SDS011;45684;48.358;10.746;2023-04-01T11:52:54;0.50;;;0.50;;
10013;SDS011;45684;48.358;10.746;2023-04-01T11:55:52;0.63;;;0.63;;
10013;SDS011;45684;48.358;10.746;2023-04-01T11:58:49;0.70;;;0.60;;
10013;SDS011;45684;48.358;10.746;2023-04-01T12:01:52;0.70;;;0.70;;
10013;SDS011;45684;48.358;10.746;2023-04-01T12:04:45;0.77;;;0.77;;
10013;SDS011;45684;48.358;10.746;2023-04-01T12:07:41;0.90;;;0.90;;
10013;SDS011;45684;48.358;10.746;2023-04-01T12:10:21;0.60;;;0.60;;
10013;SDS011;45684;48.358;10.746;2023-04-01T12:12:57;2.33;;;1.27;;
10013;SDS011;45684;48.358;10.746;2023-04-01T12:15:35;1.00;;;0.90;;
10013;SDS011;45684;48.358;10.746;2023-04-01T12:18:17;0.70;;;0.70;;
10013;SDS011;45684;48.358;10.746;2023-04-01T12:20:51;0.80;;;0.80;;
10013;SDS011;45684;48.358;10.746;2023-04-01T12:23:33;0.80;;;0.80;;
10013;SDS011;45684;48.358;10.746;2023-04-01T12:26:23;1.53;;;1.43;;
10013;SDS011;45684;48.358;10.746;2023-04-01T12:29:17;0.90;;;0.90;;
10013;SDS011;45684;48.358;10.746;2023-04-01T12:32:03;0.80;;;0.80;;
10013;SDS011;45684;48.358;10.746;2023-04-01T12:34:47;1.33;;;1.23;;
10013;SDS011;45684;48.358;10.746;2023-04-01T12:37:27;2.50;;;2.30;;
10013;SDS011;45684;48.358;10.746;2023-04-01T12:40:07;1.33;;;1.30;;
10013;SDS011;45684;48.358;10.746;2023-04-01T12:42:51;1.37;;;1.30;;
10013;SDS011;45684;48.358;10.746;2023-04-01T12:45:29;0.90;;;0.90;;
10013;SDS011;45684;48.358;10.746;2023-04-01T12:48:18;0.83;;;0.83;;
10013;SDS011;45684;48.358;10.746;2023-04-01T12:51:03;2.53;;;2.33;;
10013;SDS011;45684;48.358;10.746;2023-04-01T12:54:00;1.90;;;1.03;;
10013;SDS011;45684;48.358;10.746;2023-04-01T12:56:49;2.07;;;1.30;;
10013;SDS011;45684;48.358;10.746;2023-04-01T12:59:37;2.33;;;2.13;;
10013;SDS011;45684;48.358;10.746;2023-04-01T13:02:21;0.70;;;0.70;;
10013;SDS011;45684;48.358;10.746;2023-04-01T13:05:21;1.03;;;0.80;;
10013;SDS011;45684;48.358;10.746;2023-04-01T13:08:05;0.53;;;0.53;;
10013;SDS011;45684;48.358;10.746;2023-04-01T13:10:46;0.90;;;0.90;;
10013;SDS011;45684;48.358;10.746;2023-04-01T13:16:33;0.60;;;0.60;;
10013;SDS011;45684;48.358;10.746;2023-04-01T13:19:08;0.43;;;0.43;;
10013;SDS011;45684;48.358;10.746;2023-04-01T13:21:44;0.40;;;0.40;;
10013;SDS011;45684;48.358;10.746;2023-04-01T13:24:24;0.40;;;0.40;;
10013;SDS011;45684;48.358;10.746;2023-04-01T13:27:00;0.90;;;0.60;;
10013;SDS011;45684;48.358;10.746;2023-04-01T13:29:34;0.57;;;0.57;;
10013;SDS011;45684;48.358;10.746;2023-04-01T13:32:18;0.50;;;0.50;;
10013;SDS011;45684;48.358;10.746;2023-04-01T13:35:13;0.50;;;0.50;;
10013;SDS011;45684;48.358;10.746;2023-04-01T13:37:52;0.60;;;0.60;;
10013;SDS011;45684;48.358;10.746;2023-04-01T13:40:35;0.60;;;0.60;;
10013;SDS011;45684;48.358;10.746;2023-04-01T13:43:26;0.43;;;0.40;;
10013;SDS011;45684;48.358;10.746;2023-04-01T13:46:19;0.80;;;0.80;;
10013;SDS011;45684;48.358;10.746;2023-04-01T13:49:12;0.60;;;0.60;;
10013;SDS011;45684;48.358;10.746;2023-04-01T13:51:59;0.90;;;0.90;;
10013;SDS011;45684;48.358;10.746;2023-04-01T13:57:34;0.70;;;0.70;;
10013;SDS011;45684;48.358;10.746;2023-04-01T14:00:16;1.00;;;0.57;;
10013;SDS011;45684;48.358;10.746;2023-04-01T14:09:07;1.70;;;0.60;;
10013;SDS011;45684;48.358;10.746;2023-04-01T14:11:50;0.50;;;0.50;;
10013;SDS011;45684;48.358;10.746;2023-04-01T14:14:29;0.60;;;0.60;;
10013;SDS011;45684;48.358;10.746;2023-04-01T14:17:07;0.80;;;0.80;;
10013;SDS011;45684;48.358;10.746;2023-04-01T14:19:49;1.30;;;1.20;;
10013;SDS011;45684;48.358;10.746;2023-04-01T14:22:38;1.00;;;1.00;;
10013;SDS011;45684;48.358;10.746;2023-04-01T14:25:17;2.70;;;1.00;;
10013;SDS011;45684;48.358;10.746;2023-04-01T14:27:56;3.27;;;1.23;;
10013;SDS011;45684;48.358;10.746;2023-04-01T14:30:35;1.93;;;1.13;;
10013;SDS011;45684;48.358;10.746;2023-04-01T14:33:13;9.73;;;8.83;;
10013;SDS011;45684;48.358;10.746;2023-04-01T14:35:53;1.30;;;1.30;;
10013;SDS011;45684;48.358;10.746;2023-04-01T14:38:39;1.40;;;1.30;;
10013;SDS011;45684;48.358;10.746;2023-04-01T14:41:25;0.93;;;0.93;;
10013;SDS011;45684;48.358;10.746;2023-04-01T14:44:11;0.90;;;0.90;;
10013;SDS011;45684;48.358;10.746;2023-04-01T14:49:52;0.97;;;0.90;;
10013;SDS011;45684;48.358;10.746;2023-04-01T14:52:30;2.10;;;1.27;;
10013;SDS011;45684;48.358;10.746;2023-04-01T14:55:01;3.90;;;3.50;;
10013;SDS011;45684;48.358;10.746;2023-04-01T14:57:40;1.70;;;1.60;;
10013;SDS011;45684;48.358;10.746;2023-04-01T15:00:12;1.10;;;1.00;;
10013;SDS011;45684;48.358;10.746;2023-04-01T15:02:45;3.57;;;2.40;;
10013;SDS011;45684;48.358;10.746;2023-04-01T15:05:24;5.07;;;2.50;;
10013;SDS011;45684;48.358;10.746;2023-04-01T15:08:08;1.30;;;1.10;;
10013;SDS011;45684;48.358;10.746;2023-04-01T15:10:48;4.27;;;2.90;;
10013;SDS011;45684;48.358;10.746;2023-04-01T15:13:38;3.60;;;2.13;;
10013;SDS011;45684;48.358;10.746;2023-04-01T15:16:18;1.60;;;1.43;;
10013;SDS011;45684;48.358;10.746;2023-04-01T15:18:55;1.60;;;1.50;;
10013;SDS011;45684;48.358;10.746;2023-04-01T15:21:38;1.30;;;1.00;;
10013;SDS011;45684;48.358;10.746;2023-04-01T15:24:15;0.60;;;0.60;;
10013;SDS011;45684;48.358;10.746;2023-04-01T15:29:58;0.77;;;0.70;;
10013;SDS011;45684;48.358;10.746;2023-04-01T15:32:49;0.97;;;0.73;;
10013;SDS011;45684;48.358;10.746;2023-04-01T15:35:30;0.80;;;0.80;;
10013;SDS011;45684;48.358;10.746;2023-04-01T15:38:06;0.53;;;0.53;;
10013;SDS011;45684;48.358;10.746;2023-04-01T15:40:47;1.00;;;0.80;;
10013;SDS011;45684;48.358;10.746;2023-04-01T15:43:28;0.83;;;0.43;;
10013;SDS011;45684;48.358;10.746;2023-04-01T15:49:22;0.50;;;0.50;;
10013;SDS011;45684;48.358;10.746;2023-04-01T15:52:02;1.13;;;1.00;;
10013;SDS011;45684;48.358;10.746;2023-04-01T15:54:52;1.03;;;0.80;;
10013;SDS011;45684;48.358;10.746;2023-04-01T15:57:44;0.73;;;0.67;;
10013;SDS011;45684;48.358;10.746;2023-04-01T16:00:25;0.60;;;0.60;;
10013;SDS011;45684;48.358;10.746;2023-04-01T16:03:13;0.80;;;0.80;;
10013;SDS011;45684;48.358;10.746;2023-04-01T16:08:48;0.97;;;0.73;;
10013;SDS011;45684;48.358;10.746;2023-04-01T16:11:26;0.60;;;0.60;;
10013;SDS011;45684;48.358;10.746;2023-04-01T16:14:06;1.50;;;0.50;;
10013;SDS011;45684;48.358;10.746;2023-04-01T16:16:51;0.67;;;0.67;;
10013;SDS011;45684;48.358;10.746;2023-04-01T16:19:32;0.77;;;0.70;;
10013;SDS011;45684;48.358;10.746;2023-04-01T16:22:07;1.00;;;0.60;;
10013;SDS011;45684;48.358;10.746;2023-04-01T16:24:42;0.90;;;0.50;;
10013;SDS011;45684;48.358;10.746;2023-04-01T16:27:16;0.90;;;0.80;;
10013;SDS011;45684;48.358;10.746;2023-04-01T16:29:54;0.50;;;0.50;;
10013;SDS011;45684;48.358;10.746;2023-04-01T16:32:34;0.87;;;0.80;;
10013;SDS011;45684;48.358;10.746;2023-04-01T16:35:20;1.23;;;0.70;;
10013;SDS011;45684;48.358;10.746;2023-04-01T16:38:00;0.90;;;0.90;;
10013;SDS011;45684;48.358;10.746;2023-04-01T16:40:37;0.97;;;0.70;;
10013;SDS011;45684;48.358;10.746;2023-04-01T16:43:11;1.03;;;0.90;;
10013;SDS011;45684;48.358;10.746;2023-04-01T16:45:46;1.43;;;0.90;;
10013;SDS011;45684;48.358;10.746;2023-04-01T16:48:27;0.90;;;0.90;;
10013;SDS011;45684;48.358;10.746;2023-04-01T16:51:04;1.60;;;0.90;;
10013;SDS011;45684;48.358;10.746;2023-04-01T16:53:41;0.80;;;0.80;;
10013;SDS011;45684;48.358;10.746;2023-04-01T16:56:11;2.50;;;1.00;;
10013;SDS011;45684;48.358;10.746;2023-04-01T16:58:57;0.70;;;0.70;;
10013;SDS011;45684;48.358;10.746;2023-04-01T17:01:30;0.60;;;0.60;;
10013;SDS011;45684;48.358;10.746;2023-04-01T17:04:10;2.33;;;1.20;;
10013;SDS011;45684;48.358;10.746;2023-04-01T17:06:49;2.83;;;1.30;;
10013;SDS011;45684;48.358;10.746;2023-04-01T17:09:34;0.80;;;0.80;;
10013;SDS011;45684;48.358;10.746;2023-04-01T17:12:12;0.70;;;0.70;;
10013;SDS011;45684;48.358;10.746;2023-04-01T17:14:50;0.80;;;0.80;;
10013;SDS011;45684;48.358;10.746;2023-04-01T17:17:29;1.00;;;0.83;;